createdAt,value
2023-07-11T00:00:55.161Z,21.40
2023-07-11T00:03:19.291Z,21.40
2023-07-11T00:05:43.497Z,21.20
2023-07-11T00:08:08.423Z,21.20
2023-07-11T00:10:34.070Z,21.20
2023-07-11T00:12:58.165Z,21.10
2023-07-11T00:15:21.997Z,21.10
2023-07-11T00:17:47.138Z,21.10
2023-07-11T00:20:15.113Z,21.00
2023-07-11T00:22:38.941Z,20.90
2023-07-11T00:25:02.791Z,20.70
2023-07-11T00:27:28.012Z,20.60
2023-07-11T00:29:52.874Z,20.50
2023-07-11T00:32:16.780Z,20.50
2023-07-11T00:34:41.266Z,20.50
2023-07-11T00:37:05.684Z,20.60
2023-07-11T00:39:31.109Z,20.60
2023-07-11T00:41:54.781Z,20.70
2023-07-11T00:44:19.989Z,20.70
2023-07-11T00:46:45.542Z,20.70
2023-07-11T00:49:12.995Z,20.60
2023-07-11T00:51:42.319Z,20.60
2023-07-11T00:54:09.411Z,20.50
2023-07-11T00:56:38.599Z,20.50
2023-07-11T00:59:03.849Z,20.50
2023-07-11T01:01:29.403Z,20.50
2023-07-11T01:03:55.274Z,20.50
2023-07-11T01:06:23.177Z,20.30
2023-07-11T01:08:48.215Z,20.30
2023-07-11T01:11:12.002Z,20.10
2023-07-11T01:13:35.877Z,20.10
2023-07-11T01:16:01.190Z,20.10
2023-07-11T01:18:28.720Z,20.20
2023-07-11T01:20:53.300Z,20.10
2023-07-11T01:23:18.458Z,19.90
2023-07-11T01:25:42.233Z,19.70
2023-07-11T01:28:06.462Z,19.60
2023-07-11T01:30:30.665Z,19.50
2023-07-11T01:32:55.566Z,19.50
2023-07-11T01:35:19.726Z,19.60
2023-07-11T01:37:43.894Z,19.70
2023-07-11T01:40:10.602Z,19.80
2023-07-11T01:42:34.464Z,19.80
2023-07-11T01:44:58.253Z,19.80
2023-07-11T01:47:21.964Z,19.80
2023-07-11T01:49:45.708Z,19.80
2023-07-11T01:52:13.629Z,19.80
2023-07-11T01:54:37.520Z,19.70
2023-07-11T01:57:02.885Z,19.60
2023-07-11T01:59:26.634Z,19.60
2023-07-11T02:01:50.585Z,19.70
2023-07-11T02:04:14.346Z,19.70
2023-07-11T02:06:38.109Z,19.70
2023-07-11T02:09:03.580Z,19.70
2023-07-11T02:11:27.849Z,19.70
2023-07-11T02:13:53.185Z,19.70
2023-07-11T02:16:17.172Z,19.80
2023-07-11T02:18:40.906Z,19.80
2023-07-11T02:21:04.717Z,19.80
2023-07-11T02:23:29.117Z,19.70
2023-07-11T02:25:54.413Z,19.80
2023-07-11T02:28:18.204Z,19.80
2023-07-11T02:30:43.405Z,19.80
2023-07-11T02:33:07.552Z,19.80
2023-07-11T02:35:32.127Z,19.80
2023-07-11T02:37:55.764Z,19.80
2023-07-11T02:40:19.939Z,19.80
2023-07-11T02:42:43.820Z,19.80
2023-07-11T02:45:08.524Z,19.80
2023-07-11T02:47:35.516Z,19.80
2023-07-11T02:50:00.369Z,19.80
2023-07-11T02:52:24.155Z,19.80
2023-07-11T02:54:47.957Z,19.80
2023-07-11T02:57:13.580Z,19.80
2023-07-11T02:59:37.573Z,19.90
2023-07-11T03:02:01.390Z,20.00
2023-07-11T03:04:26.898Z,20.00
2023-07-11T03:06:50.666Z,20.00
2023-07-11T03:09:14.432Z,19.90
2023-07-11T03:11:38.205Z,19.90
2023-07-11T03:14:02.112Z,19.90
2023-07-11T03:16:25.966Z,20.10
2023-07-11T03:18:49.836Z,19.90
2023-07-11T03:21:14.956Z,19.90
2023-07-11T03:23:38.805Z,20.00
2023-07-11T03:26:03.059Z,20.30
2023-07-11T03:28:27.086Z,20.50
2023-07-11T03:30:52.556Z,20.60
2023-07-11T03:33:16.645Z,20.90
2023-07-11T03:35:40.372Z,21.20
2023-07-11T03:38:05.537Z,21.40
2023-07-11T03:40:30.870Z,21.50
2023-07-11T03:42:55.185Z,21.50
2023-07-11T03:45:19.035Z,21.50
2023-07-11T03:47:42.987Z,21.60
2023-07-11T03:50:07.577Z,21.90
2023-07-11T03:52:31.611Z,22.30
2023-07-11T03:54:56.770Z,22.40
2023-07-11T03:57:20.643Z,22.70
2023-07-11T03:59:44.570Z,23.10
2023-07-11T04:02:08.449Z,23.40
2023-07-11T04:04:32.151Z,23.60
2023-07-11T04:06:55.996Z,23.90
2023-07-11T04:09:19.674Z,24.20
2023-07-11T04:11:44.885Z,24.50
2023-07-11T04:14:08.784Z,24.70
2023-07-11T04:16:34.258Z,24.90
2023-07-11T04:18:58.311Z,25.50
2023-07-11T04:21:22.201Z,25.80
2023-07-11T04:23:46.126Z,26.30
2023-07-11T04:26:10.057Z,26.60
2023-07-11T04:28:35.250Z,26.60
2023-07-11T04:30:59.253Z,26.90
2023-07-11T04:33:22.988Z,27.30
2023-07-11T04:35:47.496Z,27.40
2023-07-11T04:38:11.313Z,27.90
2023-07-11T04:40:35.256Z,28.30
2023-07-11T04:43:01.282Z,28.10
2023-07-11T04:45:26.642Z,28.20
2023-07-11T04:47:50.427Z,28.70
2023-07-11T04:50:14.268Z,29.10
2023-07-11T04:52:38.005Z,29.70
2023-07-11T04:55:01.757Z,29.70
2023-07-11T04:57:26.538Z,30.20
2023-07-11T04:59:50.466Z,30.60
2023-07-11T05:02:15.722Z,31.20
2023-07-11T05:04:41.328Z,31.00
2023-07-11T05:07:05.502Z,31.50
2023-07-11T05:09:29.623Z,32.30
2023-07-11T05:11:53.470Z,32.50
2023-07-11T05:14:17.379Z,32.70
2023-07-11T05:16:41.279Z,33.10
2023-07-11T05:19:06.497Z,32.70
2023-07-11T05:21:30.673Z,31.50
2023-07-11T05:23:56.383Z,31.90
2023-07-11T05:26:20.978Z,31.90
2023-07-11T05:28:44.961Z,32.70
2023-07-11T05:31:10.170Z,33.30
2023-07-11T05:33:34.069Z,33.50
2023-07-11T05:36:18.850Z,33.80
2023-07-11T05:38:45.434Z,34.00
2023-07-11T05:41:09.235Z,33.40
2023-07-11T05:43:33.105Z,34.60
2023-07-11T05:45:56.842Z,35.20
2023-07-11T05:48:20.661Z,35.60
2023-07-11T05:50:44.313Z,35.60
2023-07-11T05:53:09.481Z,35.80
2023-07-11T05:55:33.206Z,36.10
2023-07-11T05:57:57.002Z,36.70
2023-07-11T06:00:21.725Z,37.00
2023-07-11T06:02:45.718Z,37.40
2023-07-11T06:05:10.559Z,37.80
2023-07-11T06:07:35.364Z,38.40
2023-07-11T06:10:00.705Z,37.80
2023-07-11T06:12:24.600Z,38.30
2023-07-11T06:14:48.358Z,37.30
2023-07-11T06:17:12.204Z,37.20
2023-07-11T06:19:36.948Z,37.20
2023-07-11T06:22:00.843Z,36.70
2023-07-11T06:24:24.734Z,37.80
2023-07-11T06:26:50.237Z,38.50
2023-07-11T06:29:14.261Z,38.90
2023-07-11T06:31:38.273Z,38.40
2023-07-11T06:34:02.189Z,37.20
2023-07-11T06:36:26.248Z,37.90
2023-07-11T06:38:50.112Z,38.40
2023-07-11T06:41:14.449Z,39.30
2023-07-11T06:43:39.623Z,39.70
2023-07-11T06:46:04.525Z,39.70
2023-07-11T06:48:30.437Z,40.10
2023-07-11T06:50:56.095Z,40.10
2023-07-11T06:53:20.202Z,39.90
2023-07-11T06:55:47.870Z,40.10
2023-07-11T06:58:11.702Z,39.20
2023-07-11T07:00:36.909Z,40.00
2023-07-11T07:03:00.768Z,40.20
2023-07-11T07:05:24.670Z,40.90
2023-07-11T07:07:55.065Z,41.50
2023-07-11T07:10:25.326Z,41.40
2023-07-11T07:12:49.113Z,41.90
2023-07-11T07:15:14.633Z,41.60
2023-07-11T07:17:41.665Z,41.60
2023-07-11T07:20:06.166Z,41.70
2023-07-11T07:22:29.927Z,40.80
2023-07-11T07:24:53.825Z,39.90
2023-07-11T07:27:27.889Z,40.80
2023-07-11T07:29:53.764Z,41.10
2023-07-11T07:32:17.473Z,42.40
2023-07-11T07:34:42.852Z,42.20
2023-07-11T07:37:07.298Z,40.80
2023-07-11T07:39:31.419Z,40.90
2023-07-11T07:41:55.240Z,39.70
2023-07-11T07:44:19.482Z,40.10
2023-07-11T07:46:43.244Z,41.00
2023-07-11T07:49:07.024Z,40.60
2023-07-11T07:51:32.208Z,40.80
2023-07-11T07:53:55.980Z,40.80
2023-07-11T07:56:21.339Z,40.20
2023-07-11T07:58:45.375Z,39.90
2023-07-11T08:01:09.578Z,40.20
2023-07-11T08:03:33.852Z,40.20
2023-07-11T08:06:13.607Z,40.30
2023-07-11T08:08:40.664Z,40.40
2023-07-11T08:11:06.075Z,40.00
2023-07-11T08:13:31.008Z,38.80
2023-07-11T08:15:58.339Z,38.50
2023-07-11T08:18:22.117Z,37.80
2023-07-11T08:20:45.984Z,35.90
2023-07-11T08:23:09.938Z,35.80
2023-07-11T08:25:35.516Z,35.90
2023-07-11T08:27:59.369Z,35.10
2023-07-11T08:30:23.241Z,35.00
2023-07-11T08:32:47.048Z,34.90
2023-07-11T08:35:11.365Z,35.10
2023-07-11T08:37:35.499Z,34.70
2023-07-11T08:39:59.156Z,34.60
2023-07-11T08:42:33.082Z,34.30
2023-07-11T08:45:05.921Z,34.40
2023-07-11T08:47:34.600Z,34.20
2023-07-11T08:50:04.211Z,34.50
2023-07-11T08:52:30.764Z,34.80
2023-07-11T08:55:01.247Z,35.20
2023-07-11T08:57:30.676Z,35.00
2023-07-11T09:00:01.801Z,35.20
2023-07-11T09:02:38.960Z,35.50
2023-07-11T09:05:05.678Z,34.70
2023-07-11T09:07:37.976Z,34.40
2023-07-11T09:10:01.740Z,34.40
2023-07-11T09:12:37.612Z,34.30
2023-07-11T09:15:08.247Z,34.10
2023-07-11T09:17:42.723Z,34.40
2023-07-11T09:20:18.084Z,34.50
2023-07-11T09:22:51.372Z,34.70
2023-07-11T09:25:19.473Z,34.90
2023-07-11T09:27:49.330Z,34.80
2023-07-11T09:30:19.606Z,34.40
2023-07-11T09:32:43.899Z,34.20
2023-07-11T09:35:23.494Z,33.60
2023-07-11T09:37:50.860Z,33.90
2023-07-11T09:40:21.460Z,34.20
2023-07-11T09:42:51.298Z,33.80
2023-07-11T09:45:16.693Z,33.50
2023-07-11T09:47:41.612Z,33.70
2023-07-11T09:50:25.804Z,33.50
2023-07-11T09:53:01.200Z,33.20
2023-07-11T09:55:31.672Z,32.30
2023-07-11T09:57:56.864Z,32.30
2023-07-11T10:00:23.042Z,32.30
2023-07-11T10:02:48.482Z,32.20
2023-07-11T10:05:17.159Z,31.90
2023-07-11T10:07:40.878Z,32.00
2023-07-11T10:10:06.426Z,32.30
2023-07-11T10:12:31.406Z,32.70
2023-07-11T10:14:59.153Z,32.80
2023-07-11T10:17:26.502Z,32.60
2023-07-11T10:19:53.330Z,32.40
2023-07-11T10:22:23.055Z,32.70
2023-07-11T10:24:47.142Z,32.70
2023-07-11T10:27:15.483Z,32.90
2023-07-11T10:29:44.778Z,33.30
2023-07-11T10:32:15.641Z,33.10
2023-07-11T10:34:46.122Z,33.60
2023-07-11T10:37:18.514Z,33.80
2023-07-11T10:39:45.556Z,34.20
2023-07-11T10:42:17.346Z,34.60
2023-07-11T10:44:46.326Z,34.60
2023-07-11T10:47:12.456Z,34.20
2023-07-11T10:49:42.433Z,34.10
2023-07-11T10:52:10.830Z,34.40
2023-07-11T10:54:45.444Z,34.90
2023-07-11T10:57:15.501Z,35.30
2023-07-11T10:59:40.443Z,35.40
2023-07-11T11:02:12.783Z,35.00
2023-07-11T11:04:57.088Z,35.10
2023-07-11T11:07:31.601Z,34.90
2023-07-11T11:10:05.500Z,35.00
2023-07-11T11:12:36.507Z,34.60
2023-07-11T11:15:21.230Z,34.60
2023-07-11T11:17:58.170Z,34.60
2023-07-11T11:20:27.690Z,34.20
2023-07-11T11:23:03.891Z,34.30
2023-07-11T11:25:31.574Z,34.50
2023-07-11T11:28:09.309Z,34.70
2023-07-11T11:30:41.699Z,34.90
2023-07-11T11:33:21.873Z,34.90
2023-07-11T11:35:56.779Z,34.50
2023-07-11T11:38:34.025Z,34.50
2023-07-11T11:41:01.906Z,34.80
2023-07-11T11:43:30.485Z,35.00
2023-07-11T11:46:29.230Z,35.00
2023-07-11T11:51:19.141Z,35.00
2023-07-11T11:53:46.480Z,35.20
2023-07-11T11:56:22.508Z,35.50
2023-07-11T11:59:01.645Z,35.80
2023-07-11T12:01:38.027Z,35.60
2023-07-11T12:04:01.825Z,35.40
2023-07-11T12:06:35.809Z,35.00
2023-07-11T12:09:25.475Z,35.10
2023-07-11T12:12:07.516Z,35.20
2023-07-11T12:14:39.661Z,35.00
2023-07-11T12:17:03.521Z,34.60
2023-07-11T12:19:34.245Z,34.70
2023-07-11T12:22:06.496Z,34.90
2023-07-11T12:24:47.263Z,35.10
2023-07-11T12:27:25.270Z,34.90
2023-07-11T12:29:53.593Z,34.40
2023-07-11T12:32:51.489Z,34.60
2023-07-11T12:35:21.806Z,34.40
2023-07-11T12:37:58.351Z,34.30
2023-07-11T12:40:29.393Z,34.30
2023-07-11T12:42:54.832Z,34.00
2023-07-11T12:45:21.734Z,34.00
2023-07-11T12:47:48.580Z,33.80
2023-07-11T12:50:20.789Z,33.70
2023-07-11T12:52:44.550Z,33.80
2023-07-11T12:55:13.472Z,33.60
2023-07-11T12:57:37.286Z,33.60
2023-07-11T13:00:01.110Z,33.70
2023-07-11T13:02:31.606Z,33.80
2023-07-11T13:05:00.088Z,33.50
2023-07-11T13:07:28.892Z,33.40
2023-07-11T13:09:54.957Z,33.30
2023-07-11T13:12:23.594Z,33.20
2023-07-11T13:14:49.759Z,33.20
2023-07-11T13:17:15.129Z,33.10
2023-07-11T13:19:38.967Z,32.90
2023-07-11T13:22:02.728Z,32.90
2023-07-11T13:24:30.482Z,32.70
2023-07-11T13:26:55.498Z,32.80
2023-07-11T13:29:23.524Z,32.90
2023-07-11T13:31:49.682Z,32.90
2023-07-11T13:34:15.937Z,32.80
2023-07-11T13:36:41.674Z,32.90
2023-07-11T13:39:07.995Z,32.90
2023-07-11T13:41:34.831Z,33.00
2023-07-11T13:44:02.793Z,33.00
2023-07-11T13:46:33.029Z,32.90
2023-07-11T13:48:57.162Z,32.90
2023-07-11T13:51:23.880Z,32.90
2023-07-11T13:53:49.517Z,32.90
2023-07-11T13:56:13.292Z,33.00
2023-07-11T13:58:37.093Z,33.00
2023-07-11T14:01:00.976Z,33.00
2023-07-11T14:03:27.285Z,33.00
2023-07-11T14:05:55.322Z,33.00
2023-07-11T14:08:20.695Z,33.00
2023-07-11T14:10:44.663Z,33.00
2023-07-11T14:13:14.401Z,32.70
2023-07-11T14:15:38.219Z,32.40
2023-07-11T14:18:02.072Z,32.20
2023-07-11T14:20:29.132Z,32.10
2023-07-11T14:22:53.147Z,32.20
2023-07-11T14:25:18.730Z,32.20
2023-07-11T14:27:42.531Z,32.10
2023-07-11T14:30:07.178Z,32.10
2023-07-11T14:32:30.894Z,32.00
2023-07-11T14:34:54.709Z,31.90
2023-07-11T14:37:20.257Z,32.00
2023-07-11T14:39:44.045Z,32.20
2023-07-11T14:42:21.744Z,32.30
2023-07-11T14:44:45.587Z,32.30
2023-07-11T14:47:12.271Z,32.10
2023-07-11T14:49:36.180Z,32.00
2023-07-11T14:51:59.893Z,32.00
2023-07-11T14:54:30.724Z,32.10
2023-07-11T14:59:32.930Z,32.00
2023-07-11T15:01:59.689Z,32.00
2023-07-11T15:06:57.713Z,31.70
2023-07-11T15:11:56.069Z,31.90
2023-07-11T15:16:52.899Z,31.90
2023-07-11T15:19:20.855Z,31.90
2023-07-11T15:21:44.949Z,31.90
2023-07-11T15:24:14.564Z,31.90
2023-07-11T15:26:39.669Z,32.00
2023-07-11T15:29:04.586Z,32.00
2023-07-11T15:31:29.201Z,32.10
2023-07-11T15:33:53.051Z,32.20
2023-07-11T15:36:16.881Z,32.20
2023-07-11T15:38:40.924Z,32.20
2023-07-11T15:41:08.076Z,32.30
2023-07-11T15:43:39.553Z,32.30
2023-07-11T15:46:05.464Z,32.20
2023-07-11T15:48:30.505Z,32.20
2023-07-11T15:50:54.997Z,32.20
2023-07-11T15:53:18.944Z,32.20
2023-07-11T15:55:43.726Z,32.10
2023-07-11T15:58:15.423Z,32.20
2023-07-11T16:00:40.681Z,32.30
2023-07-11T16:03:04.711Z,32.40
2023-07-11T16:05:34.452Z,32.40
2023-07-11T16:07:58.261Z,32.40
2023-07-11T16:10:27.043Z,32.50
2023-07-11T16:12:51.090Z,32.40
2023-07-11T16:15:15.235Z,32.40
2023-07-11T16:17:40.912Z,32.40
2023-07-11T16:20:13.046Z,32.30
2023-07-11T16:22:36.695Z,32.10
2023-07-11T16:25:00.505Z,31.80
2023-07-11T16:27:24.474Z,31.50
2023-07-11T16:29:49.248Z,31.00
2023-07-11T16:32:14.468Z,30.80
2023-07-11T16:34:40.462Z,30.60
2023-07-11T16:37:04.480Z,30.60
2023-07-11T16:39:30.443Z,30.50
2023-07-11T16:41:54.626Z,30.20
2023-07-11T16:44:19.290Z,30.20
2023-07-11T16:46:46.696Z,30.20
2023-07-11T16:49:17.552Z,30.10
2023-07-11T16:51:43.550Z,30.10
2023-07-11T16:54:16.583Z,30.10
2023-07-11T16:56:40.412Z,30.10
2023-07-11T16:59:04.139Z,30.00
2023-07-11T17:01:27.960Z,29.70
2023-07-11T17:03:51.970Z,29.70
2023-07-11T17:06:24.776Z,29.80
2023-07-11T17:08:53.179Z,29.80
2023-07-11T17:11:17.165Z,29.70
2023-07-11T17:13:44.083Z,29.60
2023-07-11T17:16:08.917Z,29.60
2023-07-11T17:18:32.986Z,29.60
2023-07-11T17:20:58.001Z,29.50
2023-07-11T17:23:22.354Z,29.50
2023-07-11T17:25:48.094Z,29.50
2023-07-11T17:28:16.906Z,29.50
2023-07-11T17:30:40.657Z,29.60
2023-07-11T17:33:04.570Z,29.60
2023-07-11T17:35:29.300Z,29.50
2023-07-11T17:37:53.063Z,29.40
2023-07-11T17:40:22.033Z,29.30
2023-07-11T17:42:56.530Z,29.20
2023-07-11T17:45:44.099Z,29.00
2023-07-11T17:48:18.460Z,29.00
2023-07-11T17:50:43.469Z,28.90
2023-07-11T17:53:07.371Z,28.90
2023-07-11T17:55:31.925Z,28.90
2023-07-11T17:57:57.256Z,28.90
2023-07-11T18:00:22.455Z,28.80
2023-07-11T18:03:01.474Z,28.80
2023-07-11T18:05:26.669Z,28.70
2023-07-11T18:07:52.803Z,28.60
2023-07-11T18:10:21.759Z,28.50
2023-07-11T18:12:56.762Z,28.40
2023-07-11T18:15:35.546Z,28.40
2023-07-11T18:18:04.106Z,28.40
2023-07-11T18:20:28.305Z,28.30
2023-07-11T18:22:55.017Z,28.20
2023-07-11T18:25:22.933Z,28.00
2023-07-11T18:27:47.411Z,27.90
2023-07-11T18:30:20.302Z,27.90
2023-07-11T18:32:48.470Z,27.80
2023-07-11T18:35:13.253Z,27.80
2023-07-11T18:37:37.254Z,27.70
2023-07-11T18:40:01.587Z,27.60
2023-07-11T18:42:27.558Z,27.60
2023-07-11T18:44:52.935Z,27.60
2023-07-11T18:47:22.387Z,27.50
2023-07-11T18:49:48.697Z,27.40
2023-07-11T18:52:16.110Z,27.30
2023-07-11T18:54:40.151Z,27.40
2023-07-11T18:57:07.442Z,27.30
2023-07-11T18:59:31.267Z,27.20
2023-07-11T19:01:55.207Z,27.20
2023-07-11T19:04:19.074Z,27.20
2023-07-11T19:06:46.199Z,27.10
2023-07-11T19:09:13.527Z,27.10
2023-07-11T19:11:39.507Z,27.00
2023-07-11T19:14:03.340Z,26.90
2023-07-11T19:16:28.715Z,26.90
2023-07-11T19:18:52.575Z,26.80
2023-07-11T19:21:16.417Z,26.70
2023-07-11T19:23:41.707Z,26.60
2023-07-11T19:26:15.177Z,26.60
2023-07-11T19:28:39.029Z,26.50
2023-07-11T19:31:03.519Z,26.50
2023-07-11T19:33:27.635Z,26.50
2023-07-11T19:35:53.626Z,26.50
2023-07-11T19:38:19.411Z,26.50
2023-07-11T19:40:44.805Z,26.50
2023-07-11T19:43:08.711Z,26.50
2023-07-11T19:45:36.869Z,26.40
2023-07-11T19:48:02.544Z,26.40
2023-07-11T19:50:37.309Z,26.30
2023-07-11T19:53:01.824Z,26.30
2023-07-11T19:55:25.924Z,26.20
2023-07-11T19:57:51.069Z,26.20
2023-07-11T20:00:32.830Z,26.20
2023-07-11T20:02:57.300Z,26.20
2023-07-11T20:05:21.179Z,26.20
2023-07-11T20:07:44.990Z,26.20
2023-07-11T20:10:18.514Z,26.10
2023-07-11T20:12:43.255Z,26.00
2023-07-11T20:15:13.770Z,26.00
2023-07-11T20:17:37.560Z,26.00
2023-07-11T20:20:03.137Z,25.90
2023-07-11T20:22:27.008Z,26.00
2023-07-11T20:24:50.761Z,26.00
2023-07-11T20:27:16.462Z,26.00
2023-07-11T20:29:41.156Z,26.00
2023-07-11T20:32:14.819Z,26.00
2023-07-11T20:34:39.992Z,25.80
2023-07-11T20:37:04.150Z,25.40
2023-07-11T20:39:27.964Z,25.20
2023-07-11T20:41:51.747Z,25.30
2023-07-11T20:44:15.513Z,25.20
2023-07-11T20:46:39.177Z,25.00
2023-07-11T20:49:04.490Z,24.80
2023-07-11T20:51:28.226Z,24.60
2023-07-11T20:53:52.068Z,24.50
2023-07-11T20:56:18.074Z,24.30
2023-07-11T20:58:41.893Z,24.20
2023-07-11T21:01:05.654Z,24.10
2023-07-11T21:03:31.864Z,24.00
2023-07-11T21:05:57.026Z,24.00
2023-07-11T21:08:29.144Z,23.80
2023-07-11T21:10:53.726Z,23.80
2023-07-11T21:13:17.438Z,23.70
2023-07-11T21:15:41.697Z,23.60
2023-07-11T21:18:06.654Z,23.50
2023-07-11T21:20:34.031Z,23.40
2023-07-11T21:22:59.860Z,23.40
2023-07-11T21:25:23.758Z,23.30
2023-07-11T21:27:47.460Z,23.10
2023-07-11T21:30:33.954Z,23.10
2023-07-11T21:32:58.153Z,23.00
2023-07-11T21:35:25.265Z,22.90
2023-07-11T21:37:48.973Z,22.80
2023-07-11T21:40:20.691Z,22.70
2023-07-11T21:42:44.425Z,22.60
2023-07-11T21:45:10.341Z,22.50
2023-07-11T21:47:34.628Z,22.50
2023-07-11T21:49:58.438Z,22.40
2023-07-11T21:52:23.032Z,22.30
2023-07-11T21:54:46.782Z,22.30
2023-07-11T21:57:15.545Z,22.30
2023-07-11T21:59:39.346Z,22.30
2023-07-11T22:02:03.167Z,22.20
2023-07-11T22:04:26.960Z,22.20
2023-07-11T22:06:50.765Z,22.10
2023-07-11T22:09:19.778Z,22.10
2023-07-11T22:11:43.526Z,22.10
2023-07-11T22:14:09.023Z,22.00
2023-07-11T22:16:32.870Z,22.00
2023-07-11T22:18:57.217Z,22.00
2023-07-11T22:21:22.646Z,21.90
2023-07-11T22:23:46.691Z,21.80
2023-07-11T22:26:14.995Z,21.80
2023-07-11T22:28:38.592Z,21.80
2023-07-11T22:31:03.899Z,21.80
2023-07-11T22:33:27.725Z,21.80
2023-07-11T22:35:51.482Z,21.80
2023-07-11T22:38:17.137Z,21.70
2023-07-11T22:40:43.176Z,21.70
2023-07-11T22:43:09.143Z,21.60
2023-07-11T22:45:34.160Z,21.60
2023-07-11T22:48:00.269Z,21.60
2023-07-11T22:50:30.939Z,21.60
2023-07-11T22:52:54.706Z,21.50
2023-07-11T22:55:19.892Z,21.50
2023-07-11T22:57:43.704Z,21.50
2023-07-11T23:00:16.770Z,21.50
2023-07-11T23:02:40.578Z,21.50
2023-07-11T23:05:06.402Z,21.50
2023-07-11T23:07:30.233Z,21.50
2023-07-11T23:09:53.961Z,21.50
2023-07-11T23:12:17.652Z,21.50
2023-07-11T23:14:41.353Z,21.40
2023-07-11T23:17:05.425Z,21.40
2023-07-11T23:19:29.355Z,21.40
2023-07-11T23:21:54.684Z,21.40
2023-07-11T23:24:18.340Z,21.40
2023-07-11T23:26:42.058Z,21.40
2023-07-11T23:29:06.209Z,21.40
2023-07-11T23:31:30.093Z,21.40
2023-07-11T23:33:53.883Z,21.30
2023-07-11T23:36:20.911Z,21.30
2023-07-11T23:38:48.543Z,21.30
2023-07-11T23:41:15.628Z,21.30
2023-07-11T23:43:41.546Z,21.30
2023-07-11T23:46:18.442Z,21.30
2023-07-11T23:48:43.251Z,21.30
2023-07-11T23:51:07.999Z,21.20
2023-07-11T23:53:32.216Z,21.30
2023-07-11T23:55:58.909Z,21.30
2023-07-11T23:58:24.971Z,21.30
